Ana Sayfa
METAR-TAF:

METAR-TAF

Havaalanları :

Rabat, Fas

Enlem: 34-03N, Boylam: 006-46W, yükseklik: 84 m

Güncel hava durumu gözlemi

Rapor saat 02:30 UTC de 24 dakika önce yapıldı.
Rüzgar doğu/güneydoğudan 7 kt
Sıcaklık 10°C
Nem 100%
Basınç 1021 hPa
Görüş mesafesi: 5000 m

METAR: GMME 280230Z 11007KT 5000 NSC 10/10 Q1021 NOSIG

Saat: 03:54 (02:54 UTC)

Tahmin

Rapor saat 23:00 UTC de 3 saat ve 54 dakika önce yapıldı.
Ayın 28'si saat 00 UTC'den ayın 29'si saat 06 UTC'ye kadar geçerli Tahmin
Rüzgar güneydoğudan 8 kt
Görüş mesafesi: 6000 m
2000 ft yükseklikte parçalı bulutlu
Geçici
ayın 28'si saat 08 UTC'den ayın 28'si saat 18 UTC'ye kadar
Rüzgar kuzeybatıdan 12 kt
Görüş mesafesi: 8000 m

TAF: GMME 272300Z 2800/2906 14008KT 6000 SCT020 TEMPO 2808/2818 32012KT 8000 NSC

4.000'den fazla havaalanı için hava durumu gözlemleri ve tahminleri (METAR ve TAF raporları).

Kullanılabilir istasyonlar harita üzerinde sarı ve kırmızı noktalarla gösterilir.

İstasyonun adını görmek için fareyi noktanın üzerinde gezdirin.

Sonrasında hava gözlem ve tahminlerini görmek için tıklayın.

Haritayı değiştirmek için: yaklaştırmak için siyah artı işaretli yeşil düğmeye ve uzaklaştırmak için de eksi işaretli düğmeye hızla tıklayın; bitişik haritalar için yeşil okları kullanın.


METAR-TAF: